This is the latest recevied weather packets stored in our database for station/object EA7URS-13. If no packets are shown the sender has not sent any weather packets the latest 10 day(s).
| Time | Temp. | Humidity | Pressure | Rain* | Wind** | Luminosity | Snow |
|---|---|---|---|---|---|---|---|
| 1788033537 | 27.78° C | 43% | 1009.4 hPa | 0 mm | - | 0 W/m² | - |
| 1788033236 | 27.78° C | 43% | 1009.4 hPa | 0 mm | - | 0 W/m² | - |
| 1788032935 | 28.33° C | 41% | 1009.3 hPa | 0 mm | - | 0 W/m² | - |
| 1788032634 | 28.33° C | 41% | 1009.3 hPa | 0 mm | - | 0 W/m² | - |
| 1788032332 | 29.44° C | 36% | 1009.1 hPa | 0 mm | - | 0 W/m² | - |
| 1788032032 | 29.44° C | 36% | 1009.1 hPa | 0 mm | - | 0 W/m² | - |
| 1788031729 | 30.56° C | 27% | 1009.2 hPa | 0 mm | - | 0 W/m² | - |
| 1788031428 | 30.56° C | 27% | 1009.2 hPa | 0 mm | - | 0 W/m² | - |
| 1788031127 | 31.11° C | 25% | 1008.9 hPa | 0 mm | - | 0 W/m² | - |
| 1788030826 | 31.11° C | 25% | 1008.9 hPa | 0 mm | - | 0 W/m² | - |
| 1788030525 | 31.67° C | 25% | 1008.5 hPa | 0 mm | - | 2 W/m² | - |
| 1788030224 | 31.67° C | 25% | 1008.5 hPa | 0 mm | - | 2 W/m² | - |
| 1788029923 | 31.67° C | 26% | 1008.5 hPa | 0 mm | - | 5 W/m² | - |
| 1788029622 | 31.67° C | 26% | 1008.5 hPa | 0 mm | - | 5 W/m² | - |
| 1788029321 | 32.22° C | 27% | 1008.6 hPa | 0 mm | - | 10 W/m² | - |
| 1788029020 | 32.22° C | 27% | 1008.6 hPa | 0 mm | - | 10 W/m² | - |
| 1788028719 | 33.33° C | 24% | 1008.6 hPa | 0 mm | - | 16 W/m² | - |
| 1788028418 | 33.33° C | 24% | 1008.6 hPa | 0 mm | - | 16 W/m² | - |
| 1788028117 | 34.44° C | 19% | 1008.7 hPa | 0 mm | - | 23 W/m² | - |
| 1788027816 | 34.44° C | 19% | 1008.7 hPa | 0 mm | - | 23 W/m² | - |
| 1788027514 | 34.44° C | 19% | 1008.7 hPa | 0 mm | - | 28 W/m² | - |
| 1788027213 | 34.44° C | 19% | 1008.7 hPa | 0 mm | - | 28 W/m² | - |
| 1788026912 | 35.56° C | 18% | 1008.5 hPa | 0 mm | - | 32 W/m² | - |
| 1788026611 | 35.56° C | 18% | 1008.5 hPa | 0 mm | - | 32 W/m² | - |
| 1788026310 | 34.44° C | 18% | 1008.8 hPa | 0 mm | - | 40 W/m² | - |
* Rain latest hour (hover to see other rain measurements)
** Current wind speed in m/s (hover to see current wind gust speed)